createdAt,value
2017-09-08T00:00:38.050Z,11.43
2017-09-08T00:03:05.506Z,11.47
2017-09-08T00:05:32.994Z,12.83
2017-09-08T00:08:00.458Z,12.00
2017-09-08T00:10:27.915Z,12.80
2017-09-08T00:12:55.398Z,12.47
2017-09-08T00:15:22.858Z,12.30
2017-09-08T00:17:50.342Z,13.37
2017-09-08T00:20:17.830Z,12.50
2017-09-08T00:22:45.290Z,13.57
2017-09-08T00:25:12.746Z,13.40
2017-09-08T00:27:40.222Z,11.50
2017-09-08T00:30:07.724Z,12.10
2017-09-08T00:32:35.182Z,13.30
2017-09-08T00:35:02.663Z,13.20
2017-09-08T00:37:30.966Z,12.80
2017-09-08T00:39:58.422Z,13.47
2017-09-08T00:42:25.902Z,12.50
2017-09-08T00:44:53.359Z,13.17
2017-09-08T00:47:20.815Z,12.40
2017-09-08T00:49:48.294Z,12.60
2017-09-08T00:52:15.782Z,12.13
2017-09-08T00:54:43.262Z,12.73
2017-09-08T00:57:10.742Z,13.40
2017-09-08T00:59:38.204Z,13.47
2017-09-08T01:02:05.690Z,13.30
2017-09-08T01:04:33.151Z,13.80
2017-09-08T01:07:00.615Z,11.87
2017-09-08T01:09:28.098Z,13.13
2017-09-08T01:11:55.555Z,13.00
2017-09-08T01:14:23.018Z,12.63
2017-09-08T01:16:50.503Z,12.73
2017-09-08T01:19:17.958Z,13.03
2017-09-08T01:21:45.420Z,12.50
2017-09-08T01:24:12.898Z,11.73
2017-09-08T01:26:40.355Z,11.70
2017-09-08T01:29:07.818Z,12.00
2017-09-08T01:31:35.311Z,13.43
2017-09-08T01:34:02.779Z,12.50
2017-09-08T01:36:30.272Z,11.97
2017-09-08T01:38:57.749Z,12.23
2017-09-08T01:41:25.213Z,13.27
2017-09-08T01:43:52.671Z,13.00
2017-09-08T01:46:20.154Z,13.20
2017-09-08T01:48:47.610Z,13.67
2017-09-08T01:51:15.066Z,13.33
2017-09-08T01:53:42.546Z,12.63
2017-09-08T01:56:10.015Z,13.47
2017-09-08T01:58:37.478Z,13.40
2017-09-08T02:01:04.954Z,13.00
2017-09-08T02:03:32.423Z,14.40
2017-09-08T02:05:59.878Z,15.27
2017-09-08T02:08:27.358Z,14.20
2017-09-08T02:10:54.842Z,14.47
2017-09-08T02:13:22.298Z,13.30
2017-09-08T02:15:49.756Z,14.20
2017-09-08T02:18:17.235Z,13.50
2017-09-08T02:20:44.694Z,12.70
2017-09-08T02:23:12.170Z,13.00
2017-09-08T02:25:39.649Z,13.23
2017-09-08T02:28:07.127Z,14.67
2017-09-08T02:30:34.607Z,13.50
2017-09-08T02:33:02.066Z,13.70
2017-09-08T02:35:29.546Z,14.13
2017-09-08T02:37:57.006Z,13.93
2017-09-08T02:40:24.467Z,13.77
2017-09-08T02:42:51.954Z,13.73
2017-09-08T02:45:19.415Z,14.20
2017-09-08T02:47:46.877Z,13.17
2017-09-08T02:50:14.359Z,12.40
2017-09-08T02:52:41.818Z,13.97
2017-09-08T02:55:09.275Z,12.90
2017-09-08T02:57:36.763Z,12.90
2017-09-08T03:00:04.222Z,12.20
2017-09-08T03:02:31.687Z,12.40
2017-09-08T03:04:59.172Z,12.60
2017-09-08T03:07:26.635Z,12.07
2017-09-08T03:09:54.103Z,12.37
2017-09-08T03:12:21.590Z,11.20
2017-09-08T03:14:49.050Z,11.80
2017-09-08T03:17:16.506Z,12.50
2017-09-08T03:19:43.994Z,12.83
2017-09-08T03:22:11.455Z,11.77
2017-09-08T03:24:38.910Z,11.10
2017-09-08T03:27:06.390Z,11.70
2017-09-08T03:29:33.850Z,10.70
2017-09-08T03:32:01.306Z,10.27
2017-09-08T03:34:28.795Z,10.70
2017-09-08T03:36:56.319Z,9.53
2017-09-08T03:39:23.795Z,10.13
2017-09-08T03:41:51.274Z,8.73
2017-09-08T03:44:18.726Z,9.17
2017-09-08T03:46:46.186Z,9.60
2017-09-08T03:49:13.662Z,10.37
2017-09-08T03:51:41.115Z,10.47
2017-09-08T03:54:08.571Z,9.70
2017-09-08T03:56:36.046Z,9.33
2017-09-08T03:59:03.500Z,9.80
2017-09-08T04:01:30.954Z,9.83
2017-09-08T04:03:58.438Z,9.87
2017-09-08T04:06:25.894Z,10.87
2017-09-08T04:08:53.366Z,9.40
2017-09-08T04:11:20.859Z,10.33
2017-09-08T04:13:48.326Z,9.23
2017-09-08T04:16:15.789Z,9.70
2017-09-08T04:18:43.282Z,9.33
2017-09-08T04:21:10.745Z,10.10
2017-09-08T04:23:38.210Z,10.10
2017-09-08T04:26:05.701Z,10.10
2017-09-08T04:28:33.164Z,10.67
2017-09-08T04:31:00.619Z,9.70
2017-09-08T04:33:28.102Z,11.00
2017-09-08T04:35:55.558Z,9.60
2017-09-08T04:38:23.016Z,9.63
2017-09-08T04:40:50.499Z,9.80
2017-09-08T04:43:17.950Z,9.03
2017-09-08T04:45:45.402Z,9.50
2017-09-08T04:48:12.882Z,9.50
2017-09-08T04:50:40.339Z,9.47
2017-09-08T04:53:07.799Z,10.40
2017-09-08T04:55:35.282Z,10.40
2017-09-08T04:58:02.738Z,8.80
2017-09-08T05:00:30.195Z,9.77
2017-09-08T05:02:57.692Z,9.63
2017-09-08T05:05:25.167Z,10.67
2017-09-08T05:07:52.622Z,10.33
2017-09-08T05:10:20.103Z,10.23
2017-09-08T05:12:47.562Z,11.13
2017-09-08T05:15:15.018Z,9.80
2017-09-08T05:17:42.499Z,11.00
2017-09-08T05:20:09.954Z,9.73
2017-09-08T05:22:37.413Z,9.30
2017-09-08T05:25:04.914Z,9.20
2017-09-08T05:27:32.375Z,9.10
2017-09-08T05:29:59.830Z,9.30
2017-09-08T05:32:27.306Z,8.67
2017-09-08T05:34:54.767Z,10.20
2017-09-08T05:37:22.219Z,9.50
2017-09-08T05:39:49.702Z,8.80
2017-09-08T05:42:17.154Z,8.60
2017-09-08T05:44:44.614Z,10.30
2017-09-08T05:47:12.098Z,8.70
2017-09-08T05:49:39.554Z,9.67
2017-09-08T05:52:07.011Z,8.20
2017-09-08T05:54:34.498Z,7.80
2017-09-08T05:57:01.983Z,7.83
2017-09-08T05:59:29.442Z,8.77
2017-09-08T06:01:56.918Z,9.37
2017-09-08T06:04:24.371Z,9.13
2017-09-08T06:06:51.823Z,7.77
2017-09-08T06:09:19.298Z,9.30
2017-09-08T06:11:46.751Z,9.87
2017-09-08T06:14:14.206Z,8.90
2017-09-08T06:16:41.686Z,12.07
2017-09-08T06:19:09.143Z,10.23
2017-09-08T06:21:36.598Z,9.83
2017-09-08T06:24:04.078Z,8.30
2017-09-08T06:26:31.538Z,8.93
2017-09-08T06:28:58.995Z,8.80
2017-09-08T06:31:26.481Z,9.23
2017-09-08T06:33:53.935Z,9.40
2017-09-08T06:36:21.386Z,8.53
2017-09-08T06:38:48.858Z,8.87
2017-09-08T06:41:16.306Z,8.20
2017-09-08T06:43:43.759Z,8.60
2017-09-08T06:46:11.246Z,8.87
2017-09-08T06:48:38.710Z,7.90
2017-09-08T06:51:06.167Z,9.17
2017-09-08T06:53:33.646Z,8.10
2017-09-08T06:56:01.102Z,8.30
2017-09-08T06:58:28.553Z,9.20
2017-09-08T07:00:56.026Z,7.07
2017-09-08T07:03:23.502Z,7.50
2017-09-08T07:05:50.959Z,7.07
2017-09-08T07:08:18.418Z,7.93
2017-09-08T07:10:45.890Z,7.13
2017-09-08T07:13:13.338Z,8.17
2017-09-08T07:15:40.854Z,7.30
2017-09-08T07:18:08.331Z,7.67
2017-09-08T07:20:35.782Z,8.90
2017-09-08T07:23:03.238Z,7.70
2017-09-08T07:25:30.718Z,7.77
2017-09-08T07:27:58.174Z,7.33
2017-09-08T07:30:25.706Z,8.07
2017-09-08T07:32:53.161Z,7.27
2017-09-08T07:35:20.634Z,7.37
2017-09-08T07:37:48.106Z,6.90
2017-09-08T07:40:15.582Z,7.40
2017-09-08T07:42:43.058Z,6.53
2017-09-08T07:45:10.529Z,7.13
2017-09-08T07:47:37.998Z,8.00
2017-09-08T07:50:05.471Z,7.53
2017-09-08T07:52:32.959Z,7.80
2017-09-08T07:55:00.439Z,7.60
2017-09-08T07:57:27.910Z,6.70
2017-09-08T07:59:55.385Z,7.73
2017-09-08T08:02:22.858Z,7.20
2017-09-08T08:04:50.334Z,7.87
2017-09-08T08:07:17.802Z,7.70
2017-09-08T08:09:45.274Z,7.43
2017-09-08T08:12:12.750Z,7.03
2017-09-08T08:14:40.202Z,6.37
2017-09-08T08:17:07.689Z,8.37
2017-09-08T08:19:35.147Z,7.80
2017-09-08T08:22:02.606Z,8.43
2017-09-08T08:24:30.095Z,8.03
2017-09-08T08:26:57.580Z,9.00
2017-09-08T08:29:25.042Z,6.57
2017-09-08T08:31:52.512Z,7.00
2017-09-08T08:34:19.990Z,7.27
2017-09-08T08:36:47.438Z,7.80
2017-09-08T08:39:14.894Z,7.27
2017-09-08T08:41:42.370Z,7.07
2017-09-08T08:44:09.827Z,8.43
2017-09-08T08:46:37.278Z,7.87
2017-09-08T08:49:04.766Z,7.27
2017-09-08T08:51:32.222Z,8.77
2017-09-08T08:53:59.665Z,7.40
2017-09-08T08:56:27.134Z,7.30
2017-09-08T08:58:54.585Z,6.43
2017-09-08T09:01:22.040Z,7.60
2017-09-08T09:03:49.522Z,6.97
2017-09-08T09:06:16.980Z,8.53
2017-09-08T09:08:44.435Z,8.10
2017-09-08T09:11:11.918Z,8.17
2017-09-08T09:13:39.374Z,8.03
2017-09-08T09:16:06.817Z,7.83
2017-09-08T09:18:34.294Z,7.60
2017-09-08T09:21:01.746Z,7.70
2017-09-08T09:23:29.200Z,7.37
2017-09-08T09:25:56.678Z,7.87
2017-09-08T09:28:24.140Z,8.60
2017-09-08T09:30:51.594Z,7.67
2017-09-08T09:33:19.069Z,7.17
2017-09-08T09:35:46.533Z,8.13
2017-09-08T09:38:14.013Z,7.17
2017-09-08T09:40:41.482Z,7.47
2017-09-08T09:43:08.942Z,7.40
2017-09-08T09:45:36.422Z,8.13
2017-09-08T09:48:03.874Z,7.77
2017-09-08T09:50:31.326Z,8.23
2017-09-08T09:52:58.806Z,8.17
2017-09-08T09:55:26.263Z,7.70
2017-09-08T09:57:53.715Z,7.70
2017-09-08T10:00:21.186Z,9.00
2017-09-08T10:02:48.638Z,10.23
2017-09-08T10:05:16.090Z,8.80
2017-09-08T10:07:43.565Z,8.20
2017-09-08T10:10:11.025Z,9.43
2017-09-08T10:12:38.479Z,9.47
2017-09-08T10:15:05.959Z,9.93
2017-09-08T10:17:33.414Z,9.77
2017-09-08T10:20:00.871Z,10.90
2017-09-08T10:22:28.350Z,9.47
2017-09-08T10:24:55.803Z,10.27
2017-09-08T10:27:23.267Z,9.20
2017-09-08T10:29:50.743Z,9.13
2017-09-08T10:32:18.198Z,10.70
2017-09-08T10:34:45.655Z,10.00
2017-09-08T10:37:13.140Z,9.93
2017-09-08T10:39:40.606Z,11.90
2017-09-08T10:42:08.067Z,11.40
2017-09-08T10:44:35.558Z,13.00
2017-09-08T10:47:03.012Z,13.77
2017-09-08T10:49:30.474Z,13.43
2017-09-08T10:51:57.949Z,13.70
2017-09-08T10:54:25.398Z,13.20
2017-09-08T10:56:52.858Z,13.30
2017-09-08T10:59:20.346Z,12.73
2017-09-08T11:01:47.799Z,13.90
2017-09-08T11:04:15.282Z,14.40
2017-09-08T11:06:42.741Z,14.13
2017-09-08T11:09:10.219Z,13.80
2017-09-08T11:11:37.698Z,14.33
2017-09-08T11:14:05.188Z,14.37
2017-09-08T11:16:32.639Z,11.93
2017-09-08T11:19:00.137Z,13.43
2017-09-08T11:21:27.598Z,14.83
2017-09-08T11:23:55.085Z,14.47
2017-09-08T11:26:22.572Z,14.17
2017-09-08T11:28:50.030Z,13.67
2017-09-08T11:31:17.487Z,14.43
2017-09-08T11:47:10.931Z,13.70
2017-09-08T11:49:38.390Z,14.73
2017-09-08T11:52:05.860Z,13.20
2017-09-08T11:54:33.866Z,13.73
2017-09-08T11:57:01.326Z,13.00
2017-09-08T11:59:28.790Z,13.83
2017-09-08T12:01:56.281Z,13.03
2017-09-08T12:04:23.754Z,14.87
2017-09-08T12:06:51.225Z,13.80
2017-09-08T12:09:18.719Z,12.47
2017-09-08T12:11:46.178Z,13.30
2017-09-08T12:14:13.634Z,12.57
2017-09-08T12:16:41.118Z,12.90
2017-09-08T12:19:08.580Z,13.30
2017-09-08T12:21:36.046Z,13.70
2017-09-08T12:24:03.526Z,13.07
2017-09-08T12:26:31.044Z,12.57
2017-09-08T12:28:58.514Z,12.40
2017-09-08T12:31:26.003Z,12.50
2017-09-08T12:33:53.467Z,12.23
2017-09-08T12:36:20.930Z,10.80
2017-09-08T12:38:48.410Z,11.47
2017-09-08T12:41:15.866Z,11.33
2017-09-08T12:43:43.322Z,10.67
2017-09-08T12:46:10.802Z,11.27
2017-09-08T12:48:38.263Z,12.50
2017-09-08T12:51:05.718Z,11.10
2017-09-08T12:53:33.198Z,11.77
2017-09-08T12:56:00.660Z,11.50
2017-09-08T12:58:28.118Z,10.37
2017-09-08T13:00:55.610Z,12.30
2017-09-08T13:03:23.071Z,10.43
2017-09-08T13:05:50.528Z,11.13
2017-09-08T13:08:18.011Z,11.77
2017-09-08T13:10:45.474Z,11.13
2017-09-08T13:13:12.993Z,11.03
2017-09-08T13:15:40.478Z,11.50
2017-09-08T13:18:08.979Z,12.40
2017-09-08T13:20:36.462Z,12.77
2017-09-08T13:23:03.899Z,11.77
2017-09-08T13:25:31.402Z,12.10
2017-09-08T13:27:58.986Z,12.70
2017-09-08T13:30:26.468Z,12.43
2017-09-08T13:32:54.043Z,11.73
2017-09-08T13:35:21.498Z,11.03
2017-09-08T13:37:48.957Z,10.90
2017-09-08T13:40:16.434Z,11.33
2017-09-08T13:42:43.898Z,11.77
2017-09-08T13:45:11.357Z,10.00
2017-09-08T13:47:38.852Z,11.43
2017-09-08T13:50:06.310Z,10.43
2017-09-08T13:52:33.797Z,10.37
2017-09-08T13:55:01.271Z,10.63
2017-09-08T13:57:28.735Z,10.57
2017-09-08T13:59:56.218Z,10.60
2017-09-08T14:02:23.699Z,10.77
2017-09-08T14:04:51.168Z,11.07
2017-09-08T14:07:18.654Z,11.13
2017-09-08T14:09:46.131Z,9.73
2017-09-08T14:12:13.591Z,10.20
2017-09-08T14:14:41.114Z,9.20
2017-09-08T14:17:08.566Z,9.60
2017-09-08T14:19:36.023Z,8.43
2017-09-08T14:22:03.503Z,9.57
2017-09-08T14:24:30.954Z,9.47
2017-09-08T14:26:58.413Z,9.90
2017-09-08T14:29:25.908Z,9.40
2017-09-08T14:31:53.367Z,11.47
2017-09-08T14:34:20.827Z,10.60
2017-09-08T14:36:48.314Z,10.03
2017-09-08T14:39:15.766Z,9.90
2017-09-08T14:41:43.222Z,10.50
2017-09-08T14:44:10.719Z,10.73
2017-09-08T14:46:38.179Z,11.30
2017-09-08T14:49:05.639Z,9.90
2017-09-08T14:51:33.122Z,10.90
2017-09-08T14:54:00.573Z,9.60
2017-09-08T14:56:28.026Z,10.83
2017-09-08T14:58:55.556Z,15.60
2017-09-08T15:01:23.015Z,10.33
2017-09-08T15:03:50.484Z,10.90
2017-09-08T15:06:17.970Z,11.07
2017-09-08T15:08:45.436Z,11.40
2017-09-08T15:11:12.894Z,12.73
2017-09-08T15:13:40.374Z,11.47
2017-09-08T15:16:07.830Z,11.80
2017-09-08T15:18:35.278Z,9.13
2017-09-08T15:21:02.758Z,10.40
2017-09-08T15:23:30.219Z,10.40
2017-09-08T15:25:57.694Z,10.93
2017-09-08T15:28:25.174Z,9.97
2017-09-08T15:30:52.636Z,10.40
2017-09-08T15:33:20.095Z,10.40
2017-09-08T15:35:47.569Z,9.57
2017-09-08T15:38:15.025Z,9.90
2017-09-08T15:40:42.479Z,9.90
2017-09-08T15:43:09.962Z,10.00
2017-09-08T15:45:37.420Z,9.30
2017-09-08T15:48:04.947Z,9.63
2017-09-08T15:50:32.480Z,9.60
2017-09-08T15:53:00.123Z,9.97
2017-09-08T15:55:27.578Z,9.07
2017-09-08T15:57:55.054Z,8.13
2017-09-08T16:00:22.511Z,9.00
2017-09-08T16:02:49.963Z,8.57
2017-09-08T16:05:17.443Z,8.33
2017-09-08T16:07:44.897Z,8.90
2017-09-08T16:10:12.354Z,8.63
2017-09-08T16:12:39.836Z,9.47
2017-09-08T16:15:07.291Z,8.73
2017-09-08T16:17:34.751Z,8.27
2017-09-08T16:20:02.227Z,8.47
2017-09-08T16:22:29.683Z,7.97
2017-09-08T16:24:57.139Z,8.97
2017-09-08T16:27:24.629Z,7.60
2017-09-08T16:29:52.090Z,8.43
2017-09-08T16:32:19.542Z,8.10
2017-09-08T16:34:47.023Z,7.90
2017-09-08T16:37:14.490Z,8.10
2017-09-08T16:39:41.946Z,7.63
2017-09-08T16:42:09.422Z,8.00
2017-09-08T16:44:36.870Z,7.83
2017-09-08T16:47:04.322Z,7.87
2017-09-08T16:49:31.799Z,7.60
2017-09-08T16:51:59.253Z,8.83
2017-09-08T16:54:26.726Z,8.40
2017-09-08T16:56:54.178Z,8.60
2017-09-08T16:59:21.652Z,7.47
2017-09-08T17:01:49.258Z,8.20
2017-09-08T17:04:16.738Z,7.30
2017-09-08T17:06:44.209Z,7.87
2017-09-08T17:09:11.667Z,7.10
2017-09-08T17:11:39.149Z,9.00
2017-09-08T17:14:06.631Z,8.47
2017-09-08T17:16:34.102Z,7.87
2017-09-08T17:19:01.608Z,8.10
2017-09-08T17:21:29.074Z,7.50
2017-09-08T17:23:56.550Z,8.50
2017-09-08T17:26:24.011Z,8.47
2017-09-08T17:28:51.482Z,8.40
2017-09-08T17:31:18.970Z,9.07
2017-09-08T17:33:46.430Z,8.57
2017-09-08T17:36:13.886Z,8.50
2017-09-08T17:38:41.362Z,8.10
2017-09-08T17:41:08.815Z,7.90
2017-09-08T17:43:36.271Z,7.87
2017-09-08T17:46:03.759Z,8.20
2017-09-08T17:48:31.218Z,8.93
2017-09-08T17:50:58.675Z,9.07
2017-09-08T17:53:26.171Z,9.30
2017-09-08T17:55:53.638Z,9.10
2017-09-08T17:58:21.094Z,9.73
2017-09-08T18:00:48.576Z,9.43
2017-09-08T18:03:16.035Z,9.90
2017-09-08T18:05:43.494Z,8.10
2017-09-08T18:08:10.974Z,8.40
2017-09-08T18:10:38.453Z,9.97
2017-09-08T18:13:05.902Z,8.87
2017-09-08T18:15:33.391Z,9.77
2017-09-08T18:18:00.854Z,9.00
2017-09-08T18:20:28.335Z,8.53
2017-09-08T18:22:55.826Z,10.13
2017-09-08T18:25:23.302Z,8.70
2017-09-08T18:27:50.829Z,8.80
2017-09-08T18:30:18.313Z,8.87
2017-09-08T18:32:45.783Z,9.40
2017-09-08T18:35:13.359Z,10.17
2017-09-08T18:37:40.967Z,7.70
2017-09-08T18:40:08.432Z,9.93
2017-09-08T18:42:35.933Z,10.07
2017-09-08T18:45:03.605Z,9.53
2017-09-08T18:47:31.340Z,9.20
2017-09-08T18:49:59.112Z,10.20
2017-09-08T18:52:27.079Z,9.43
2017-09-08T18:54:55.148Z,9.63
2017-09-08T18:57:23.529Z,8.90
2017-09-08T18:59:51.897Z,9.40
2017-09-08T19:02:20.319Z,10.13
2017-09-08T19:04:48.810Z,9.37
2017-09-08T19:07:17.180Z,10.30
2017-09-08T19:09:45.851Z,9.60
2017-09-08T19:12:14.585Z,9.07
2017-09-08T19:14:43.347Z,8.73
2017-09-08T19:17:11.860Z,8.97
2017-09-08T19:19:40.250Z,9.20
2017-09-08T19:22:08.878Z,9.07
2017-09-08T19:24:37.333Z,8.83
2017-09-08T19:27:05.686Z,9.37
2017-09-08T19:29:34.160Z,9.50
2017-09-08T19:32:02.626Z,9.70
2017-09-08T19:34:31.011Z,9.33
2017-09-08T19:36:59.590Z,8.60
2017-09-08T19:39:28.046Z,8.37
2017-09-08T19:41:56.492Z,8.67
2017-09-08T19:44:25.058Z,8.33
2017-09-08T19:46:53.957Z,8.57
2017-09-08T19:49:22.392Z,8.77
2017-09-08T19:51:50.857Z,9.10
2017-09-08T19:54:19.466Z,8.70
2017-09-08T19:56:47.913Z,9.33
2017-09-08T19:59:16.392Z,9.43
2017-09-08T20:01:45.123Z,8.47
2017-09-08T20:04:13.830Z,8.00
2017-09-08T20:06:42.579Z,8.90
2017-09-08T20:09:10.992Z,8.70
2017-09-08T20:11:39.786Z,8.50
2017-09-08T20:14:08.417Z,8.20
2017-09-08T20:16:36.936Z,9.23
2017-09-08T20:19:05.445Z,8.73
2017-09-08T20:21:33.911Z,8.43
2017-09-08T20:24:02.292Z,8.80
2017-09-08T20:26:30.943Z,8.23
2017-09-08T20:28:59.342Z,9.37
2017-09-08T20:31:27.770Z,8.87
2017-09-08T20:33:56.305Z,8.63
2017-09-08T20:36:24.684Z,8.57
2017-09-08T20:38:53.133Z,9.20
2017-09-08T20:41:22.715Z,9.00
2017-09-08T20:43:51.040Z,9.40
2017-09-08T20:46:19.410Z,9.20
2017-09-08T20:48:47.698Z,8.90
2017-09-08T20:51:16.049Z,10.23
2017-09-08T20:53:44.166Z,9.10
2017-09-08T20:56:11.907Z,9.53
2017-09-08T20:58:39.424Z,10.10
2017-09-08T21:01:06.994Z,9.53
2017-09-08T21:03:34.535Z,9.20
2017-09-08T21:06:01.998Z,11.20
2017-09-08T21:08:29.458Z,9.97
2017-09-08T21:10:56.942Z,9.80
2017-09-08T21:13:24.402Z,8.70
2017-09-08T21:15:51.867Z,9.97
2017-09-08T21:18:19.350Z,10.10
2017-09-08T21:20:46.806Z,8.67
2017-09-08T21:23:14.291Z,9.37
2017-09-08T21:25:41.788Z,10.30
2017-09-08T21:28:09.270Z,9.87
2017-09-08T21:30:36.755Z,8.50
2017-09-08T21:33:04.218Z,10.17
2017-09-08T21:35:31.670Z,9.70
2017-09-08T21:37:59.150Z,9.77
2017-09-08T21:40:26.614Z,10.07
2017-09-08T21:42:54.080Z,10.03
2017-09-08T21:45:21.562Z,10.70
2017-09-08T21:47:49.022Z,9.20
2017-09-08T21:50:16.496Z,9.07
2017-09-08T21:52:43.974Z,10.40
2017-09-08T21:55:11.434Z,10.03
2017-09-08T21:57:38.932Z,9.97
2017-09-08T22:00:06.391Z,8.37
2017-09-08T22:02:33.846Z,9.67
2017-09-08T22:05:01.329Z,9.87
2017-09-08T22:07:28.783Z,9.40
2017-09-08T22:09:56.239Z,9.60
2017-09-08T22:12:23.714Z,9.03
2017-09-08T22:14:51.170Z,9.47
2017-09-08T22:17:18.756Z,9.80
2017-09-08T22:19:46.231Z,9.87
2017-09-08T22:22:13.687Z,9.97
2017-09-08T22:24:41.178Z,9.40
2017-09-08T22:27:08.639Z,10.13
2017-09-08T22:29:36.099Z,9.33
2017-09-08T22:32:03.577Z,8.47
2017-09-08T22:34:31.034Z,9.57
2017-09-08T22:36:58.486Z,9.63
2017-09-08T22:39:25.966Z,8.77
2017-09-08T22:41:53.447Z,9.00
2017-09-08T22:44:20.926Z,8.53
2017-09-08T22:49:22.143Z,9.10
2017-09-08T22:51:49.629Z,8.53
2017-09-08T22:54:17.082Z,9.20
2017-09-08T22:56:44.534Z,9.10
2017-09-08T22:59:12.010Z,8.63
2017-09-08T23:01:39.465Z,8.80
2017-09-08T23:04:06.927Z,9.10
2017-09-08T23:06:34.419Z,8.70
2017-09-08T23:09:01.883Z,9.43
2017-09-08T23:11:29.371Z,8.03
2017-09-08T23:13:56.838Z,8.83
2017-09-08T23:16:24.295Z,9.43
2017-09-08T23:18:51.774Z,8.30
2017-09-08T23:21:19.227Z,8.70
2017-09-08T23:23:46.686Z,8.17
2017-09-08T23:26:14.165Z,8.17
2017-09-08T23:28:41.630Z,8.67
2017-09-08T23:31:09.107Z,8.40
2017-09-08T23:33:36.588Z,9.13
2017-09-08T23:36:04.070Z,8.07
2017-09-08T23:38:31.543Z,8.03
2017-09-08T23:40:58.998Z,7.90
2017-09-08T23:43:26.478Z,8.30
2017-09-08T23:45:53.936Z,8.30
2017-09-08T23:48:21.406Z,8.57
2017-09-08T23:50:48.991Z,8.43
2017-09-08T23:53:16.446Z,8.50
2017-09-08T23:55:43.898Z,8.30
2017-09-08T23:58:11.377Z,8.93
